sensor_id;sensor_type;location;lat;lon;timestamp;P1;durP1;ratioP1;P2;durP2;ratioP2
10114;SDS011;5097;43.260;27.812;2023-04-03T00:01:40;5.43;;;4.63;;
10114;SDS011;5097;43.260;27.812;2023-04-03T00:04:24;5.00;;;4.60;;
10114;SDS011;5097;43.260;27.812;2023-04-03T00:07:08;5.90;;;4.50;;
10114;SDS011;5097;43.260;27.812;2023-04-03T00:09:53;5.30;;;4.30;;
10114;SDS011;5097;43.260;27.812;2023-04-03T00:12:37;4.60;;;4.17;;
10114;SDS011;5097;43.260;27.812;2023-04-03T00:15:21;6.20;;;3.97;;
10114;SDS011;5097;43.260;27.812;2023-04-03T00:18:05;4.80;;;4.17;;
10114;SDS011;5097;43.260;27.812;2023-04-03T00:20:49;4.20;;;3.87;;
10114;SDS011;5097;43.260;27.812;2023-04-03T00:23:33;3.80;;;3.50;;
10114;SDS011;5097;43.260;27.812;2023-04-03T00:26:19;5.73;;;4.23;;
10114;SDS011;5097;43.260;27.812;2023-04-03T00:29:02;8.47;;;4.67;;
10114;SDS011;5097;43.260;27.812;2023-04-03T00:31:47;4.80;;;4.13;;
10114;SDS011;5097;43.260;27.812;2023-04-03T00:34:31;5.57;;;3.57;;
10114;SDS011;5097;43.260;27.812;2023-04-03T00:37:15;3.93;;;3.63;;
10114;SDS011;5097;43.260;27.812;2023-04-03T00:39:59;3.57;;;3.13;;
10114;SDS011;5097;43.260;27.812;2023-04-03T00:42:46;3.60;;;3.30;;
10114;SDS011;5097;43.260;27.812;2023-04-03T00:45:33;5.43;;;4.00;;
10114;SDS011;5097;43.260;27.812;2023-04-03T00:48:20;4.97;;;3.83;;
10114;SDS011;5097;43.260;27.812;2023-04-03T00:51:09;3.93;;;3.63;;
10114;SDS011;5097;43.260;27.812;2023-04-03T00:53:57;6.00;;;4.03;;
10114;SDS011;5097;43.260;27.812;2023-04-03T00:56:44;5.20;;;3.73;;
10114;SDS011;5097;43.260;27.812;2023-04-03T00:59:30;5.10;;;4.20;;
10114;SDS011;5097;43.260;27.812;2023-04-03T01:02:17;4.90;;;4.50;;
10114;SDS011;5097;43.260;27.812;2023-04-03T01:05:01;4.03;;;3.73;;
10114;SDS011;5097;43.260;27.812;2023-04-03T01:07:45;3.27;;;2.90;;
10114;SDS011;5097;43.260;27.812;2023-04-03T01:10:30;4.23;;;3.30;;
10114;SDS011;5097;43.260;27.812;2023-04-03T01:13:18;3.60;;;3.23;;
10114;SDS011;5097;43.260;27.812;2023-04-03T01:16:07;3.23;;;2.93;;
10114;SDS011;5097;43.260;27.812;2023-04-03T01:18:51;4.37;;;3.00;;
10114;SDS011;5097;43.260;27.812;2023-04-03T01:21:49;2.33;;;2.13;;
10114;SDS011;5097;43.260;27.812;2023-04-03T01:24:46;2.70;;;2.20;;
10114;SDS011;5097;43.260;27.812;2023-04-03T01:27:30;4.07;;;3.10;;
10114;SDS011;5097;43.260;27.812;2023-04-03T01:30:13;5.70;;;5.13;;
10114;SDS011;5097;43.260;27.812;2023-04-03T01:33:02;2.77;;;2.20;;
10114;SDS011;5097;43.260;27.812;2023-04-03T01:35:47;4.17;;;3.33;;
10114;SDS011;5097;43.260;27.812;2023-04-03T01:38:31;2.93;;;2.73;;
10114;SDS011;5097;43.260;27.812;2023-04-03T01:41:15;2.60;;;2.40;;
10114;SDS011;5097;43.260;27.812;2023-04-03T01:44:00;2.80;;;2.60;;
10114;SDS011;5097;43.260;27.812;2023-04-03T01:46:44;2.10;;;2.00;;
10114;SDS011;5097;43.260;27.812;2023-04-03T01:49:30;2.73;;;2.53;;
10114;SDS011;5097;43.260;27.812;2023-04-03T01:52:14;3.77;;;2.47;;
10114;SDS011;5097;43.260;27.812;2023-04-03T01:54:57;3.80;;;3.37;;
10114;SDS011;5097;43.260;27.812;2023-04-03T01:57:41;3.03;;;2.83;;
10114;SDS011;5097;43.260;27.812;2023-04-03T02:00:25;5.50;;;4.97;;
10114;SDS011;5097;43.260;27.812;2023-04-03T02:03:09;3.17;;;2.87;;
10114;SDS011;5097;43.260;27.812;2023-04-03T02:05:55;3.60;;;2.30;;
10114;SDS011;5097;43.260;27.812;2023-04-03T02:08:38;2.60;;;1.73;;
10114;SDS011;5097;43.260;27.812;2023-04-03T02:11:23;3.67;;;1.80;;
10114;SDS011;5097;43.260;27.812;2023-04-03T02:14:07;2.83;;;2.53;;
10114;SDS011;5097;43.260;27.812;2023-04-03T02:17:11;3.57;;;2.00;;
10114;SDS011;5097;43.260;27.812;2023-04-03T02:19:55;3.30;;;2.20;;
10114;SDS011;5097;43.260;27.812;2023-04-03T02:22:40;4.10;;;3.23;;
10114;SDS011;5097;43.260;27.812;2023-04-03T02:25:24;3.07;;;2.37;;
10114;SDS011;5097;43.260;27.812;2023-04-03T02:28:08;5.97;;;4.40;;
10114;SDS011;5097;43.260;27.812;2023-04-03T02:30:52;4.33;;;3.80;;
10114;SDS011;5097;43.260;27.812;2023-04-03T02:33:36;6.20;;;4.53;;
10114;SDS011;5097;43.260;27.812;2023-04-03T02:36:23;5.13;;;4.43;;
10114;SDS011;5097;43.260;27.812;2023-04-03T02:39:13;7.13;;;5.43;;
10114;SDS011;5097;43.260;27.812;2023-04-03T02:41:57;7.47;;;5.17;;
10114;SDS011;5097;43.260;27.812;2023-04-03T02:44:42;6.07;;;4.33;;
10114;SDS011;5097;43.260;27.812;2023-04-03T02:47:26;3.03;;;2.83;;
10114;SDS011;5097;43.260;27.812;2023-04-03T02:50:10;3.03;;;2.83;;
10114;SDS011;5097;43.260;27.812;2023-04-03T02:52:54;3.40;;;3.10;;
10114;SDS011;5097;43.260;27.812;2023-04-03T02:55:40;3.60;;;3.30;;
10114;SDS011;5097;43.260;27.812;2023-04-03T02:58:24;3.20;;;3.00;;
10114;SDS011;5097;43.260;27.812;2023-04-03T03:01:11;3.50;;;3.20;;
10114;SDS011;5097;43.260;27.812;2023-04-03T03:03:55;3.80;;;2.97;;
10114;SDS011;5097;43.260;27.812;2023-04-03T03:06:39;2.90;;;2.70;;
10114;SDS011;5097;43.260;27.812;2023-04-03T03:09:25;3.97;;;3.67;;
10114;SDS011;5097;43.260;27.812;2023-04-03T03:12:11;3.57;;;3.23;;
10114;SDS011;5097;43.260;27.812;2023-04-03T03:14:55;4.10;;;3.53;;
10114;SDS011;5097;43.260;27.812;2023-04-03T03:17:38;3.47;;;2.90;;
10114;SDS011;5097;43.260;27.812;2023-04-03T03:20:22;3.03;;;2.60;;
10114;SDS011;5097;43.260;27.812;2023-04-03T03:23:06;3.50;;;3.20;;
10114;SDS011;5097;43.260;27.812;2023-04-03T03:25:54;2.60;;;2.40;;
10114;SDS011;5097;43.260;27.812;2023-04-03T03:28:40;3.00;;;2.70;;
10114;SDS011;5097;43.260;27.812;2023-04-03T03:31:25;2.80;;;2.60;;
10114;SDS011;5097;43.260;27.812;2023-04-03T03:34:10;2.70;;;2.50;;
10114;SDS011;5097;43.260;27.812;2023-04-03T03:36:54;2.50;;;2.40;;
10114;SDS011;5097;43.260;27.812;2023-04-03T03:39:38;2.87;;;2.67;;
10114;SDS011;5097;43.260;27.812;2023-04-03T03:42:22;6.17;;;3.50;;
10114;SDS011;5097;43.260;27.812;2023-04-03T03:45:08;3.20;;;2.90;;
10114;SDS011;5097;43.260;27.812;2023-04-03T03:47:53;3.20;;;2.90;;
10114;SDS011;5097;43.260;27.812;2023-04-03T03:50:37;3.80;;;2.90;;
10114;SDS011;5097;43.260;27.812;2023-04-03T03:53:21;3.40;;;3.20;;
10114;SDS011;5097;43.260;27.812;2023-04-03T03:56:08;3.90;;;3.03;;
10114;SDS011;5097;43.260;27.812;2023-04-03T03:58:54;4.50;;;4.20;;
10114;SDS011;5097;43.260;27.812;2023-04-03T04:01:40;4.30;;;3.90;;
10114;SDS011;5097;43.260;27.812;2023-04-03T04:04:24;5.20;;;4.80;;
10114;SDS011;5097;43.260;27.812;2023-04-03T04:07:07;4.43;;;3.90;;
10114;SDS011;5097;43.260;27.812;2023-04-03T04:09:52;5.27;;;4.47;;
10114;SDS011;5097;43.260;27.812;2023-04-03T04:12:36;5.27;;;4.67;;
10114;SDS011;5097;43.260;27.812;2023-04-03T04:15:20;7.33;;;5.30;;
10114;SDS011;5097;43.260;27.812;2023-04-03T04:18:06;5.30;;;4.50;;
10114;SDS011;5097;43.260;27.812;2023-04-03T04:20:50;6.73;;;4.60;;
10114;SDS011;5097;43.260;27.812;2023-04-03T04:23:35;6.13;;;4.90;;
10114;SDS011;5097;43.260;27.812;2023-04-03T04:26:19;5.50;;;4.43;;
10114;SDS011;5097;43.260;27.812;2023-04-03T04:29:04;5.83;;;4.00;;
10114;SDS011;5097;43.260;27.812;2023-04-03T04:31:50;5.33;;;4.80;;
10114;SDS011;5097;43.260;27.812;2023-04-03T04:34:37;5.93;;;5.53;;
10114;SDS011;5097;43.260;27.812;2023-04-03T04:37:21;5.40;;;4.90;;
10114;SDS011;5097;43.260;27.812;2023-04-03T04:40:05;9.47;;;5.77;;
10114;SDS011;5097;43.260;27.812;2023-04-03T04:42:50;7.60;;;6.53;;
10114;SDS011;5097;43.260;27.812;2023-04-03T04:45:34;10.10;;;7.00;;
10114;SDS011;5097;43.260;27.812;2023-04-03T04:48:19;3.47;;;3.17;;
10114;SDS011;5097;43.260;27.812;2023-04-03T04:51:04;2.37;;;2.03;;
10114;SDS011;5097;43.260;27.812;2023-04-03T04:53:51;5.23;;;2.33;;
10114;SDS011;5097;43.260;27.812;2023-04-03T04:56:38;3.87;;;2.20;;
10114;SDS011;5097;43.260;27.812;2023-04-03T04:59:22;2.30;;;2.00;;
10114;SDS011;5097;43.260;27.812;2023-04-03T05:02:08;4.17;;;2.03;;
10114;SDS011;5097;43.260;27.812;2023-04-03T05:04:54;2.30;;;2.10;;
10114;SDS011;5097;43.260;27.812;2023-04-03T05:07:43;5.07;;;2.20;;
10114;SDS011;5097;43.260;27.812;2023-04-03T05:10:27;2.10;;;1.90;;
10114;SDS011;5097;43.260;27.812;2023-04-03T05:13:11;2.27;;;1.80;;
10114;SDS011;5097;43.260;27.812;2023-04-03T05:15:56;2.37;;;2.17;;
10114;SDS011;5097;43.260;27.812;2023-04-03T05:18:40;2.37;;;2.20;;
10114;SDS011;5097;43.260;27.812;2023-04-03T05:21:31;2.13;;;2.00;;
10114;SDS011;5097;43.260;27.812;2023-04-03T05:24:21;3.00;;;2.10;;
10114;SDS011;5097;43.260;27.812;2023-04-03T05:27:05;2.00;;;1.90;;
10114;SDS011;5097;43.260;27.812;2023-04-03T05:29:53;2.43;;;2.23;;
10114;SDS011;5097;43.260;27.812;2023-04-03T05:32:38;2.87;;;1.87;;
10114;SDS011;5097;43.260;27.812;2023-04-03T05:35:29;2.73;;;2.00;;
10114;SDS011;5097;43.260;27.812;2023-04-03T05:38:16;3.83;;;2.10;;
10114;SDS011;5097;43.260;27.812;2023-04-03T05:41:01;2.50;;;1.93;;
10114;SDS011;5097;43.260;27.812;2023-04-03T05:43:46;1.60;;;1.50;;
10114;SDS011;5097;43.260;27.812;2023-04-03T05:46:30;2.07;;;1.97;;
10114;SDS011;5097;43.260;27.812;2023-04-03T05:49:18;2.20;;;2.10;;
10114;SDS011;5097;43.260;27.812;2023-04-03T05:52:02;3.00;;;1.90;;
10114;SDS011;5097;43.260;27.812;2023-04-03T05:54:47;2.20;;;2.10;;
10114;SDS011;5097;43.260;27.812;2023-04-03T05:57:39;2.07;;;1.97;;
10114;SDS011;5097;43.260;27.812;2023-04-03T06:00:23;2.40;;;2.20;;
10114;SDS011;5097;43.260;27.812;2023-04-03T06:03:15;2.60;;;2.40;;
10114;SDS011;5097;43.260;27.812;2023-04-03T06:06:00;3.00;;;2.30;;
10114;SDS011;5097;43.260;27.812;2023-04-03T06:08:46;2.87;;;2.37;;
10114;SDS011;5097;43.260;27.812;2023-04-03T06:11:30;2.27;;;2.10;;
10114;SDS011;5097;43.260;27.812;2023-04-03T06:14:15;2.57;;;2.37;;
10114;SDS011;5097;43.260;27.812;2023-04-03T06:16:59;2.97;;;2.10;;
10114;SDS011;5097;43.260;27.812;2023-04-03T06:19:43;2.37;;;2.27;;
10114;SDS011;5097;43.260;27.812;2023-04-03T06:22:28;4.13;;;2.37;;
10114;SDS011;5097;43.260;27.812;2023-04-03T06:25:12;2.77;;;2.57;;
10114;SDS011;5097;43.260;27.812;2023-04-03T06:27:56;3.40;;;2.50;;
10114;SDS011;5097;43.260;27.812;2023-04-03T06:30:42;2.73;;;2.43;;
10114;SDS011;5097;43.260;27.812;2023-04-03T06:33:25;3.23;;;2.50;;
10114;SDS011;5097;43.260;27.812;2023-04-03T06:36:09;3.03;;;2.83;;
10114;SDS011;5097;43.260;27.812;2023-04-03T06:38:54;3.00;;;2.47;;
10114;SDS011;5097;43.260;27.812;2023-04-03T06:41:38;2.70;;;2.50;;
10114;SDS011;5097;43.260;27.812;2023-04-03T06:44:22;3.17;;;2.53;;
10114;SDS011;5097;43.260;27.812;2023-04-03T06:47:08;3.00;;;2.67;;
10114;SDS011;5097;43.260;27.812;2023-04-03T06:49:54;3.10;;;2.77;;
10114;SDS011;5097;43.260;27.812;2023-04-03T06:52:38;2.57;;;2.40;;
10114;SDS011;5097;43.260;27.812;2023-04-03T06:55:22;3.67;;;2.80;;
10114;SDS011;5097;43.260;27.812;2023-04-03T06:58:06;3.27;;;2.97;;
10114;SDS011;5097;43.260;27.812;2023-04-03T07:00:50;2.60;;;2.50;;
10114;SDS011;5097;43.260;27.812;2023-04-03T07:03:35;2.80;;;2.60;;
10114;SDS011;5097;43.260;27.812;2023-04-03T07:06:19;3.23;;;2.57;;
10114;SDS011;5097;43.260;27.812;2023-04-03T07:09:03;4.40;;;3.40;;
10114;SDS011;5097;43.260;27.812;2023-04-03T07:11:46;7.03;;;6.37;;
10114;SDS011;5097;43.260;27.812;2023-04-03T07:14:30;3.70;;;2.97;;
10114;SDS011;5097;43.260;27.812;2023-04-03T07:17:14;8.13;;;5.07;;
10114;SDS011;5097;43.260;27.812;2023-04-03T07:19:59;3.27;;;2.57;;
10114;SDS011;5097;43.260;27.812;2023-04-03T07:22:46;2.50;;;2.30;;
10114;SDS011;5097;43.260;27.812;2023-04-03T07:25:30;2.30;;;2.20;;
10114;SDS011;5097;43.260;27.812;2023-04-03T07:28:16;3.47;;;3.13;;
10114;SDS011;5097;43.260;27.812;2023-04-03T07:31:02;3.77;;;3.37;;
10114;SDS011;5097;43.260;27.812;2023-04-03T07:33:48;7.70;;;6.53;;
10114;SDS011;5097;43.260;27.812;2023-04-03T07:36:33;4.03;;;3.47;;
10114;SDS011;5097;43.260;27.812;2023-04-03T07:39:18;3.53;;;3.23;;
10114;SDS011;5097;43.260;27.812;2023-04-03T07:42:02;20.47;;;15.23;;
10114;SDS011;5097;43.260;27.812;2023-04-03T07:44:46;9.47;;;7.13;;
10114;SDS011;5097;43.260;27.812;2023-04-03T07:47:30;2.70;;;2.50;;
10114;SDS011;5097;43.260;27.812;2023-04-03T07:50:14;2.53;;;2.33;;
10114;SDS011;5097;43.260;27.812;2023-04-03T07:53:00;4.65;;;3.83;;
10114;SDS011;5097;43.260;27.812;2023-04-03T07:55:45;3.90;;;3.50;;
10114;SDS011;5097;43.260;27.812;2023-04-03T07:58:29;4.60;;;3.80;;
10114;SDS011;5097;43.260;27.812;2023-04-03T08:01:13;2.75;;;2.55;;
10114;SDS011;5097;43.260;27.812;2023-04-03T08:03:57;2.58;;;2.28;;
10114;SDS011;5097;43.260;27.812;2023-04-03T08:06:41;2.67;;;2.47;;
10114;SDS011;5097;43.260;27.812;2023-04-03T08:09:29;2.20;;;2.08;;
10114;SDS011;5097;43.260;27.812;2023-04-03T08:12:13;2.08;;;1.98;;
10114;SDS011;5097;43.260;27.812;2023-04-03T08:14:59;2.50;;;2.30;;
10114;SDS011;5097;43.260;27.812;2023-04-03T08:17:44;2.58;;;2.38;;
10114;SDS011;5097;43.260;27.812;2023-04-03T08:20:28;3.13;;;2.83;;
10114;SDS011;5097;43.260;27.812;2023-04-03T08:23:12;1.98;;;1.88;;
10114;SDS011;5097;43.260;27.812;2023-04-03T08:26:06;2.70;;;2.50;;
10114;SDS011;5097;43.260;27.812;2023-04-03T08:28:50;2.03;;;1.85;;
10114;SDS011;5097;43.260;27.812;2023-04-03T08:31:34;2.30;;;2.20;;
10114;SDS011;5097;43.260;27.812;2023-04-03T08:34:19;2.45;;;2.08;;
10114;SDS011;5097;43.260;27.812;2023-04-03T08:37:03;6.90;;;3.67;;
10114;SDS011;5097;43.260;27.812;2023-04-03T08:39:47;2.92;;;1.70;;
10114;SDS011;5097;43.260;27.812;2023-04-03T08:42:38;2.60;;;2.40;;
10114;SDS011;5097;43.260;27.812;2023-04-03T08:45:34;2.80;;;2.60;;
10114;SDS011;5097;43.260;27.812;2023-04-03T08:48:26;4.50;;;3.15;;
10114;SDS011;5097;43.260;27.812;2023-04-03T08:51:15;3.97;;;2.50;;
10114;SDS011;5097;43.260;27.812;2023-04-03T08:54:01;3.10;;;2.75;;
10114;SDS011;5097;43.260;27.812;2023-04-03T08:56:51;3.17;;;2.70;;
10114;SDS011;5097;43.260;27.812;2023-04-03T08:59:37;3.40;;;2.28;;
10114;SDS011;5097;43.260;27.812;2023-04-03T09:02:28;6.10;;;2.90;;
10114;SDS011;5097;43.260;27.812;2023-04-03T09:05:16;2.53;;;2.40;;
10114;SDS011;5097;43.260;27.812;2023-04-03T09:08:05;2.80;;;2.60;;
10114;SDS011;5097;43.260;27.812;2023-04-03T09:10:59;2.83;;;2.63;;
10114;SDS011;5097;43.260;27.812;2023-04-03T09:13:54;4.10;;;3.33;;
10114;SDS011;5097;43.260;27.812;2023-04-03T09:16:46;7.00;;;4.68;;
10114;SDS011;5097;43.260;27.812;2023-04-03T09:19:38;5.47;;;4.10;;
10114;SDS011;5097;43.260;27.812;2023-04-03T09:22:28;7.90;;;4.18;;
10114;SDS011;5097;43.260;27.812;2023-04-03T09:25:27;7.43;;;4.63;;
10114;SDS011;5097;43.260;27.812;2023-04-03T09:28:13;6.47;;;4.50;;
10114;SDS011;5097;43.260;27.812;2023-04-03T09:30:59;9.35;;;3.80;;
10114;SDS011;5097;43.260;27.812;2023-04-03T09:33:45;5.97;;;5.35;;
10114;SDS011;5097;43.260;27.812;2023-04-03T09:36:39;5.53;;;5.03;;
10114;SDS011;5097;43.260;27.812;2023-04-03T09:39:24;8.20;;;5.18;;
10114;SDS011;5097;43.260;27.812;2023-04-03T09:42:14;6.72;;;5.03;;
10114;SDS011;5097;43.260;27.812;2023-04-03T09:45:03;5.57;;;4.55;;
10114;SDS011;5097;43.260;27.812;2023-04-03T09:47:48;5.82;;;5.22;;
10114;SDS011;5097;43.260;27.812;2023-04-03T09:50:58;6.80;;;4.25;;
10114;SDS011;5097;43.260;27.812;2023-04-03T09:53:44;6.40;;;4.72;;
10114;SDS011;5097;43.260;27.812;2023-04-03T09:56:28;5.28;;;4.82;;
10114;SDS011;5097;43.260;27.812;2023-04-03T09:59:14;8.35;;;6.88;;
10114;SDS011;5097;43.260;27.812;2023-04-03T10:01:59;5.90;;;5.38;;
10114;SDS011;5097;43.260;27.812;2023-04-03T10:04:46;9.68;;;7.75;;
10114;SDS011;5097;43.260;27.812;2023-04-03T10:07:49;8.95;;;8.10;;
10114;SDS011;5097;43.260;27.812;2023-04-03T10:10:45;9.50;;;6.40;;
10114;SDS011;5097;43.260;27.812;2023-04-03T10:13:31;6.70;;;5.90;;
10114;SDS011;5097;43.260;27.812;2023-04-03T10:16:33;9.40;;;6.13;;
10114;SDS011;5097;43.260;27.812;2023-04-03T10:19:26;11.07;;;6.13;;
10114;SDS011;5097;43.260;27.812;2023-04-03T10:22:22;8.20;;;6.07;;
10114;SDS011;5097;43.260;27.812;2023-04-03T10:25:18;6.47;;;5.38;;
10114;SDS011;5097;43.260;27.812;2023-04-03T10:28:08;6.45;;;5.78;;
10114;SDS011;5097;43.260;27.812;2023-04-03T10:30:59;8.43;;;5.47;;
10114;SDS011;5097;43.260;27.812;2023-04-03T10:33:56;7.35;;;6.65;;
10114;SDS011;5097;43.260;27.812;2023-04-03T10:36:50;7.07;;;6.40;;
10114;SDS011;5097;43.260;27.812;2023-04-03T10:39:43;6.63;;;6.13;;
10114;SDS011;5097;43.260;27.812;2023-04-03T10:42:37;8.02;;;6.05;;
10114;SDS011;5097;43.260;27.812;2023-04-03T10:45:30;9.02;;;6.22;;
10114;SDS011;5097;43.260;27.812;2023-04-03T10:48:35;6.97;;;6.38;;
10114;SDS011;5097;43.260;27.812;2023-04-03T10:51:27;6.38;;;5.18;;
10114;SDS011;5097;43.260;27.812;2023-04-03T10:54:17;5.85;;;5.25;;
10114;SDS011;5097;43.260;27.812;2023-04-03T10:57:08;7.63;;;5.43;;
10114;SDS011;5097;43.260;27.812;2023-04-03T10:59:57;5.55;;;4.57;;
10114;SDS011;5097;43.260;27.812;2023-04-03T11:02:45;7.03;;;4.85;;
10114;SDS011;5097;43.260;27.812;2023-04-03T11:05:36;8.57;;;5.85;;
10114;SDS011;5097;43.260;27.812;2023-04-03T11:08:26;6.00;;;5.20;;
10114;SDS011;5097;43.260;27.812;2023-04-03T11:11:16;6.03;;;5.28;;
10114;SDS011;5097;43.260;27.812;2023-04-03T11:14:05;6.32;;;4.97;;
10114;SDS011;5097;43.260;27.812;2023-04-03T11:17:09;7.07;;;5.35;;
10114;SDS011;5097;43.260;27.812;2023-04-03T11:20:01;7.47;;;5.32;;
10114;SDS011;5097;43.260;27.812;2023-04-03T11:22:50;9.85;;;5.95;;
10114;SDS011;5097;43.260;27.812;2023-04-03T11:25:40;9.80;;;8.80;;
10114;SDS011;5097;43.260;27.812;2023-04-03T11:28:27;8.90;;;8.05;;
10114;SDS011;5097;43.260;27.812;2023-04-03T11:31:25;6.07;;;5.40;;
10114;SDS011;5097;43.260;27.812;2023-04-03T11:34:29;6.85;;;5.30;;
10114;SDS011;5097;43.260;27.812;2023-04-03T11:37:22;7.03;;;4.88;;
10114;SDS011;5097;43.260;27.812;2023-04-03T11:40:19;6.60;;;5.30;;
10114;SDS011;5097;43.260;27.812;2023-04-03T11:43:07;5.18;;;4.65;;
10114;SDS011;5097;43.260;27.812;2023-04-03T11:46:04;5.75;;;5.22;;
10114;SDS011;5097;43.260;27.812;2023-04-03T11:48:50;5.78;;;4.63;;
10114;SDS011;5097;43.260;27.812;2023-04-03T11:51:45;4.78;;;4.38;;
10114;SDS011;5097;43.260;27.812;2023-04-03T11:54:47;6.55;;;4.80;;
10114;SDS011;5097;43.260;27.812;2023-04-03T11:57:45;6.93;;;4.38;;
10114;SDS011;5097;43.260;27.812;2023-04-03T12:00:51;5.32;;;4.72;;
10114;SDS011;5097;43.260;27.812;2023-04-03T12:06:52;7.43;;;3.65;;
10114;SDS011;5097;43.260;27.812;2023-04-03T12:12:56;4.10;;;3.80;;
10114;SDS011;5097;43.260;27.812;2023-04-03T12:15:48;5.25;;;4.00;;
10114;SDS011;5097;43.260;27.812;2023-04-03T12:18:53;4.80;;;4.40;;
10114;SDS011;5097;43.260;27.812;2023-04-03T12:28:38;7.00;;;6.40;;
10114;SDS011;5097;43.260;27.812;2023-04-03T12:31:35;5.63;;;5.07;;
10114;SDS011;5097;43.260;27.812;2023-04-03T12:34:40;5.80;;;5.20;;
10114;SDS011;5097;43.260;27.812;2023-04-03T12:37:48;27.65;;;13.43;;
10114;SDS011;5097;43.260;27.812;2023-04-03T12:40:47;5.50;;;4.30;;
10114;SDS011;5097;43.260;27.812;2023-04-03T12:43:43;4.80;;;4.50;;
10114;SDS011;5097;43.260;27.812;2023-04-03T12:46:49;8.20;;;6.60;;
10114;SDS011;5097;43.260;27.812;2023-04-03T12:49:45;4.07;;;3.78;;
10114;SDS011;5097;43.260;27.812;2023-04-03T12:52:37;4.20;;;3.88;;
10114;SDS011;5097;43.260;27.812;2023-04-03T12:55:37;4.13;;;3.50;;
10114;SDS011;5097;43.260;27.812;2023-04-03T12:58:27;4.38;;;3.97;;
10114;SDS011;5097;43.260;27.812;2023-04-03T13:01:24;3.50;;;3.30;;
10114;SDS011;5097;43.260;27.812;2023-04-03T13:04:15;3.28;;;3.08;;
10114;SDS011;5097;43.260;27.812;2023-04-03T13:07:17;4.40;;;4.00;;
10114;SDS011;5097;43.260;27.812;2023-04-03T13:10:14;4.15;;;3.85;;
10114;SDS011;5097;43.260;27.812;2023-04-03T13:13:08;3.70;;;3.40;;
10114;SDS011;5097;43.260;27.812;2023-04-03T13:15:59;6.65;;;4.47;;
10114;SDS011;5097;43.260;27.812;2023-04-03T13:18:56;4.13;;;3.72;;
10114;SDS011;5097;43.260;27.812;2023-04-03T13:21:48;5.68;;;4.07;;
10114;SDS011;5097;43.260;27.812;2023-04-03T13:24:41;4.50;;;4.00;;
10114;SDS011;5097;43.260;27.812;2023-04-03T13:27:32;4.93;;;4.53;;
10114;SDS011;5097;43.260;27.812;2023-04-03T13:30:23;4.45;;;3.92;;
10114;SDS011;5097;43.260;27.812;2023-04-03T13:33:19;6.93;;;4.80;;
10114;SDS011;5097;43.260;27.812;2023-04-03T13:36:06;5.95;;;4.90;;
10114;SDS011;5097;43.260;27.812;2023-04-03T13:39:00;5.38;;;4.88;;
10114;SDS011;5097;43.260;27.812;2023-04-03T13:41:47;5.60;;;4.30;;
10114;SDS011;5097;43.260;27.812;2023-04-03T13:44:33;17.55;;;12.00;;
10114;SDS011;5097;43.260;27.812;2023-04-03T13:47:21;6.30;;;5.80;;
10114;SDS011;5097;43.260;27.812;2023-04-03T13:50:13;5.70;;;5.15;;
10114;SDS011;5097;43.260;27.812;2023-04-03T13:53:02;4.72;;;4.32;;
10114;SDS011;5097;43.260;27.812;2023-04-03T13:55:57;5.05;;;4.53;;
10114;SDS011;5097;43.260;27.812;2023-04-03T13:58:52;4.75;;;4.35;;
10114;SDS011;5097;43.260;27.812;2023-04-03T14:01:43;6.80;;;6.10;;
10114;SDS011;5097;43.260;27.812;2023-04-03T14:04:33;4.97;;;4.57;;
10114;SDS011;5097;43.260;27.812;2023-04-03T14:07:30;4.90;;;4.50;;
10114;SDS011;5097;43.260;27.812;2023-04-03T14:10:15;5.60;;;5.10;;
10114;SDS011;5097;43.260;27.812;2023-04-03T14:13:01;4.67;;;4.33;;
10114;SDS011;5097;43.260;27.812;2023-04-03T14:15:47;7.07;;;4.77;;
10114;SDS011;5097;43.260;27.812;2023-04-03T14:18:34;5.20;;;4.80;;
10114;SDS011;5097;43.260;27.812;2023-04-03T14:21:21;5.60;;;4.77;;
10114;SDS011;5097;43.260;27.812;2023-04-03T14:24:05;5.73;;;5.13;;
10114;SDS011;5097;43.260;27.812;2023-04-03T14:26:51;5.07;;;4.67;;
10114;SDS011;5097;43.260;27.812;2023-04-03T14:29:36;5.63;;;5.07;;
10114;SDS011;5097;43.260;27.812;2023-04-03T14:32:20;6.50;;;5.80;;
10114;SDS011;5097;43.260;27.812;2023-04-03T14:35:06;5.83;;;4.93;;
10114;SDS011;5097;43.260;27.812;2023-04-03T14:37:52;6.57;;;4.63;;
10114;SDS011;5097;43.260;27.812;2023-04-03T14:40:37;5.87;;;5.03;;
10114;SDS011;5097;43.260;27.812;2023-04-03T14:43:22;6.67;;;6.00;;
10114;SDS011;5097;43.260;27.812;2023-04-03T14:46:10;6.17;;;5.57;;
10114;SDS011;5097;43.260;27.812;2023-04-03T14:48:57;4.73;;;4.33;;
10114;SDS011;5097;43.260;27.812;2023-04-03T14:51:41;6.70;;;6.10;;
10114;SDS011;5097;43.260;27.812;2023-04-03T14:54:27;7.90;;;7.10;;
10114;SDS011;5097;43.260;27.812;2023-04-03T14:57:11;6.10;;;5.50;;
10114;SDS011;5097;43.260;27.812;2023-04-03T14:59:58;6.57;;;5.97;;
10114;SDS011;5097;43.260;27.812;2023-04-03T15:02:44;5.30;;;4.80;;
10114;SDS011;5097;43.260;27.812;2023-04-03T15:05:30;7.10;;;6.40;;
10114;SDS011;5097;43.260;27.812;2023-04-03T15:08:18;5.57;;;5.07;;
10114;SDS011;5097;43.260;27.812;2023-04-03T15:11:06;5.43;;;4.93;;
10114;SDS011;5097;43.260;27.812;2023-04-03T15:13:50;5.07;;;4.37;;
10114;SDS011;5097;43.260;27.812;2023-04-03T15:16:34;6.13;;;4.57;;
10114;SDS011;5097;43.260;27.812;2023-04-03T15:19:18;7.03;;;5.03;;
10114;SDS011;5097;43.260;27.812;2023-04-03T15:22:02;5.50;;;5.00;;
10114;SDS011;5097;43.260;27.812;2023-04-03T15:24:46;5.03;;;4.53;;
10114;SDS011;5097;43.260;27.812;2023-04-03T15:27:32;4.60;;;4.20;;
10114;SDS011;5097;43.260;27.812;2023-04-03T15:30:17;9.00;;;5.20;;
10114;SDS011;5097;43.260;27.812;2023-04-03T15:33:02;7.17;;;4.63;;
10114;SDS011;5097;43.260;27.812;2023-04-03T15:35:46;6.73;;;6.00;;
10114;SDS011;5097;43.260;27.812;2023-04-03T15:38:30;6.27;;;4.97;;
10114;SDS011;5097;43.260;27.812;2023-04-03T15:41:14;6.87;;;6.10;;
10114;SDS011;5097;43.260;27.812;2023-04-03T15:44:00;8.00;;;6.67;;
10114;SDS011;5097;43.260;27.812;2023-04-03T15:46:44;6.00;;;5.40;;
10114;SDS011;5097;43.260;27.812;2023-04-03T15:49:28;6.83;;;5.63;;
10114;SDS011;5097;43.260;27.812;2023-04-03T15:52:13;5.20;;;4.70;;
10114;SDS011;5097;43.260;27.812;2023-04-03T15:54:59;5.83;;;5.27;;
10114;SDS011;5097;43.260;27.812;2023-04-03T15:57:43;5.00;;;4.60;;
10114;SDS011;5097;43.260;27.812;2023-04-03T16:00:29;6.97;;;6.30;;
10114;SDS011;5097;43.260;27.812;2023-04-03T16:03:15;6.63;;;5.93;;
10114;SDS011;5097;43.260;27.812;2023-04-03T16:06:01;6.63;;;5.93;;
10114;SDS011;5097;43.260;27.812;2023-04-03T16:08:46;7.00;;;6.30;;
10114;SDS011;5097;43.260;27.812;2023-04-03T16:11:31;7.17;;;6.30;;
10114;SDS011;5097;43.260;27.812;2023-04-03T16:14:17;6.77;;;6.07;;
10114;SDS011;5097;43.260;27.812;2023-04-03T16:17:02;7.23;;;6.53;;
10114;SDS011;5097;43.260;27.812;2023-04-03T16:19:46;8.07;;;7.27;;
10114;SDS011;5097;43.260;27.812;2023-04-03T16:22:30;8.30;;;7.50;;
10114;SDS011;5097;43.260;27.812;2023-04-03T16:25:14;8.57;;;7.30;;
10114;SDS011;5097;43.260;27.812;2023-04-03T16:27:58;7.60;;;6.80;;
10114;SDS011;5097;43.260;27.812;2023-04-03T16:30:42;7.07;;;6.23;;
10114;SDS011;5097;43.260;27.812;2023-04-03T16:33:30;7.73;;;7.03;;
10114;SDS011;5097;43.260;27.812;2023-04-03T16:36:14;7.07;;;6.37;;
10114;SDS011;5097;43.260;27.812;2023-04-03T16:38:58;9.17;;;7.50;;
10114;SDS011;5097;43.260;27.812;2023-04-03T16:41:42;6.90;;;6.20;;
10114;SDS011;5097;43.260;27.812;2023-04-03T16:44:27;9.03;;;8.13;;
10114;SDS011;5097;43.260;27.812;2023-04-03T16:47:12;9.43;;;8.47;;
10114;SDS011;5097;43.260;27.812;2023-04-03T16:49:59;10.57;;;9.63;;
10114;SDS011;5097;43.260;27.812;2023-04-03T16:52:45;13.63;;;12.27;;
10114;SDS011;5097;43.260;27.812;2023-04-03T16:55:29;15.13;;;13.53;;
10114;SDS011;5097;43.260;27.812;2023-04-03T16:58:14;9.03;;;8.23;;
10114;SDS011;5097;43.260;27.812;2023-04-03T17:00:58;8.20;;;7.40;;
10114;SDS011;5097;43.260;27.812;2023-04-03T17:03:52;10.07;;;9.07;;